Station: Noarlunga  

  Atmospheric Gas Attenuation - ITU Rec 676-11   ----------------- dB/100km -----------------
Date Time Temp RH % AH g/m3 Dew Point Wind Direction Speed kph Gust kph Barometer mB Rainfall Since 9am 24GHz 47GHz 76GHz 122GHz 134GHz 241GHz
08/05 12:10 15.7 87 11.64 13.5 15 17 1013.1 0.2 26.0 30.4 51.4 135.5 137.3 474.7
08/05 12:00 15.6 91 12.1 14.1 11 20 1013.1 0.2 27.0 31.3 53.5 141.0 144.1 498.5
08/05 11:50 15 95 12.18 14.2 9 13 1013.1 0.2 27.2 31.6 54.3 143.1 146.4 506.5
08/05 11:40 14.7 95 11.96 13.9 11 17 1013.1 0.2 26.8 31.3 53.5 141.0 143.8 497.2
08/05 11:30 14.9 91 11.6 13.4 9 20 1013.1 0.2 26.0 30.6 51.8 136.4 138.2 477.7
08/05 11:20 15.4 89 11.69 13.6 7 11 1013.1 0 26.1 30.6 51.8 136.6 138.6 479.1
08/05 11:10 15.2 88 11.42 13.2 17 19 1013.1 0 25.6 30.2 50.8 133.8 135.0 466.8
08/05 11:00 15.7 83 11.1 12.8 11 24 1013.1 0 24.8 29.5 49.1 129.3 129.6 448.0
08/05 10:50 15.3 85 11.1 12.9 15 19 1013.1 0 24.9 29.6 49.3 129.9 130.3 450.3
08/05 10:40 15.3 85 11.1 12.8 15 19 1013.1 0 24.9 29.6 49.3 129.9 130.3 450.3
08/05 10:30 15.5 88 11.63 13.5 13 19 1013.1 0 26.0 30.5 51.5 135.7 137.5 475.4
08/05 10:20 15.5 85 11.24 13.1 13 19 1013.1 0 25.2 29.8 49.8 131.2 132.0 456.1
08/05 10:10 15.5 84 11.1 12.8 13 19 1013.1 0 24.9 29.5 49.2 129.6 130.0 449.2
08/05 10:00 15.4 87 11.43 13.2 13 17 1013.1 0 25.6 30.1 50.7 133.6 134.8 466.1
08/05 09:50 15 91 11.67 13.5 9 17 1013.1 0 26.1 30.7 52.0 137.1 139.0 480.6
08/05 09:40 14.3 91 11.18 12.8 15 20 1013.1 0 25.1 30.1 50.3 132.5 133.2 460.2
08/05 09:30 14.3 89 10.93 12.5 13 22 1013.1 0 24.6 29.6 49.2 129.6 129.6 447.7
08/05 09:20 14.5 88 10.95 12.5 11 17 1013.1 0 24.6 29.6 49.2 129.5 129.6 447.6
08/05 09:10 14.3 91 11.18 12.8 9 9 1013.1 0 25.1 30.1 50.3 132.5 133.2 460.2
08/05 09:00 14.1 91 11.04 12.7 11 19 1013.1 0 24.8 29.9 49.8 131.3 131.5 454.4
08/05 08:50 14.2 86 10.5 11.9 15 20 1013.1 0 23.6 28.9 47.4 124.9 123.7 427.1
08/05 08:40 14.3 81 9.95 11.2 11 13 1013.1 0 22.5 28.0 45.1 118.5 115.9 399.8
08/05 08:30 14.4 80 9.89 11 9 19 1013.1 0 22.3 27.8 44.8 117.7 114.9 396.4
08/05 08:20 14.4 80 9.89 11.1 7 11 1013.1 0 22.3 27.8 44.8 117.7 114.9 396.4
08/05 08:10 14.3 80 9.83 10.9 9 11 1013.1 0 22.2 27.8 44.6 117.2 114.3 394.0
08/05 08:00 14.2 80 9.77 10.8 9 17 1013.1 0 22.1 27.7 44.4 116.6 113.6 391.7
08/05 07:50 14.3 81 9.95 11.2 6 9 1013.1 0 22.5 28.0 45.1 118.5 115.9 399.8
08/05 07:40 14.7 78 9.82 10.9 15 20 1013.1 0 22.2 27.6 44.3 116.5 113.5 391.5
08/05 07:30 14.7 76 9.57 10.5 9 17 1013.1 0 21.6 27.2 43.3 113.7 110.1 379.7
08/05 07:20 14.6 78 9.76 10.8 7 9 1013.1 0 22.0 27.6 44.1 115.9 112.9 389.2
08/05 07:10 14.5 78 9.7 10.7 7 11 1013.1 0 21.9 27.5 43.9 115.4 112.2 386.8
08/05 07:00 14.4 79 9.77 10.8 7 17 1013.1 0 22.1 27.6 44.3 116.3 113.3 390.6
08/05 06:50 14.4 78 9.64 10.6 7 11 1013.1 0 21.8 27.4 43.7 114.9 111.5 384.5
08/05 06:40 14.5 77 9.58 10.5 11 15 1013.1 0 21.7 27.3 43.4 114.1 110.6 381.1
08/05 06:30 14.6 76 9.51 10.4 9 17 1013.1 0 21.5 27.1 43.1 113.2 109.5 377.3
08/05 06:20 14.6 73 9.14 9.8 9 9 1013.1 0 20.7 26.5 41.6 109.2 104.5 360.0
08/05 06:10 14.6 72 9.01 9.6 13 17 1013.1 0 20.4 26.3 41.0 107.8 102.8 353.9
08/05 06:00 14.6 73 9.14 9.8 9 19 1013.1 0 20.7 26.5 41.6 109.2 104.5 360.0
08/05 05:50 14.5 76 9.45 10.3 7 9 1013.1 0 21.4 27.1 42.9 112.7 108.8 375.0
08/05 05:40 14.5 76 9.45 10.3 15 20 1013.1 0 21.4 27.1 42.9 112.7 108.8 375.0
08/05 05:30 14.4 79 9.77 10.8 9 17 1013.1 0 22.1 27.6 44.3 116.3 113.3 390.6
08/05 05:20 14.5 76 9.45 10.3 17 20 1013.1 0 21.4 27.1 42.9 112.7 108.8 375.0
08/05 05:10 14.5 74 9.2 9.9 9 13 1013.1 0 20.8 26.7 41.9 109.9 105.4 363.2
08/05 05:00 14.2 75 9.16 9.8 7 15 1013.1 0 20.8 26.7 41.8 109.9 105.3 362.7
08/05 04:50 14 76 9.17 9.8 6 9 1013.1 0 20.8 26.8 42.0 110.3 105.7 364.1
08/05 04:40 13.9 79 9.47 10.3 7 9 1013.1 0 21.4 27.3 43.3 113.8 109.9 378.8
08/05 04:30 13.8 80 9.53 10.4 6 11 1013.1 0 21.6 27.4 43.6 114.6 110.9 382.2
08/05 04:20 13.7 80 9.47 10.3 6 7 1013.1 0 21.5 27.3 43.4 114.1 110.2 379.8
08/05 04:10 13.7 81 9.59 10.5 7 7 1013.1 0 21.7 27.6 43.9 115.4 111.8 385.5
08/05 04:00 13.8 81 9.65 10.6 7 11 1013.1 0 21.8 27.6 44.1 115.9 112.5 387.9
08/05 03:50 13.9 79 9.47 10.3 7 9 1013.1 0 21.4 27.3 43.3 113.8 109.9 378.8
08/05 03:40 14.1 78 9.47 10.3 11 13 1013.1 0 21.4 27.2 43.2 113.5 109.6 377.8
08/05 03:30 14.3 76 9.34 10.1 13 22 1013.1 0 21.1 26.9 42.5 111.8 107.6 370.7
08/05 03:20 14.4 74 9.15 9.8 17 22 1013.1 0 20.7 26.6 41.7 109.5 104.9 361.3
08/05 03:10 14.2 71 8.67 9 9 11 1013.1 0 19.7 25.9 39.9 104.7 98.8 340.0
08/05 03:00 14.2 70 8.55 8.8 7 13 1013.1 0 19.5 25.7 39.4 103.4 97.2 334.4
08/05 02:50 14.1 70 8.5 8.7 9 13 1013.1 0 19.4 25.6 39.2 103.0 96.7 332.6
08/05 02:40 14.1 70 8.5 8.7 9 11 1013.1 0 19.4 25.6 39.2 103.0 96.7 332.6
08/05 02:30 14.1 71 8.62 8.9 11 20 1013.1 0 19.6 25.8 39.7 104.2 98.3 338.1
08/05 02:20 14.1 74 8.98 9.5 6 7 1013.1 0 20.4 26.4 41.2 108.1 103.0 354.8
08/05 02:10 13.8 79 9.41 10.2 7 11 1013.1 0 21.3 27.2 43.1 113.2 109.2 376.4
08/05 02:00 13.9 79 9.47 10.3 9 19 1013.1 0 21.4 27.3 43.3 113.8 109.9 378.8
08/05 01:50 13.8 81 9.65 10.6 9 11 1013.1 0 21.8 27.6 44.1 115.9 112.5 387.9
08/05 01:40 13.6 82 9.65 10.7 9 11 1013.1 0 21.8 27.7 44.2 116.2 112.8 388.9
08/05 01:30 13.4 85 9.88 10.9 4 9 1013.1 0 22.4 28.1 45.3 119.1 116.3 401.0
08/05 01:20 13.5 84 9.83 10.8 4 6 1013.1 0 22.2 28.0 45.0 118.4 115.5 398.1
08/05 01:10 13.5 82 9.59 10.6 7 9 1013.1 0 21.7 27.6 44.0 115.7 112.1 386.5
08/05 01:00 13.4 85 9.88 10.9 7 15 1013.1 0 22.4 28.1 45.3 119.1 116.3 401.0
08/05 00:50 13.3 86 9.94 11 6 7 1013.1 0 22.5 28.3 45.6 119.9 117.3 404.5
08/05 00:40 13.3 86 9.94 11 4 4 1013.1 0 22.5 28.3 45.6 119.9 117.3 404.5
08/05 00:30 13.4 83 9.65 10.6 9 20 1013.1 0 21.9 27.7 44.3 116.5 113.1 389.9
08/05 00:20 13.8 79 9.41 10.2 13 19 1013.1 0 21.3 27.2 43.1 113.2 109.2 376.4
08/05 00:10 14.3 74 9.09 9.7 7 9 1013.1 0 20.6 26.5 41.5 109.0 104.2 359.0
08/05 00:00 14.3 74 9.09 9.7 11 20 1013.1 0 20.6 26.5 41.5 109.0 104.2 359.0
07/05 23:50 14.3 72 8.85 9.3 11 13 1013.1 0 20.1 26.1 40.5 106.4 101.1 347.8
07/05 23:40 14.4 70 8.65 9 17 20 1013.1 0 19.7 25.8 39.7 104.2 98.3 338.2
07/05 23:30 14.4 69 8.53 8.8 15 24 1013.1 0 19.4 25.6 39.2 102.9 96.7 332.7
07/05 23:20 14.4 67 8.28 8.5 13 17 1013.1 0 18.9 25.2 38.2 100.3 93.5 321.3
07/05 23:10 14.4 67 8.28 8.3 11 17 1013.1 0 18.9 25.2 38.2 100.3 93.5 321.3
07/05 23:00 14.4 67 8.28 8.4 11 20 1013.1 0 18.9 25.2 38.2 100.3 93.5 321.3
07/05 22:50 14.4 67 8.28 8.3 7 13 1013.1 0 18.9 25.2 38.2 100.3 93.5 321.3
07/05 22:40 14.2 66 8.06 8.1 9 17 1013.1 0 18.4 24.9 37.5 98.2 90.9 312.1
07/05 22:30 14.3 66 8.11 8 11 20 1013.1 0 18.5 25.0 37.6 98.6 91.4 314.0
07/05 22:20 14.2 65 7.94 7.7 11 13 1013.1 0 18.2 24.7 37.0 97.0 89.3 306.7
07/05 22:10 14 62 7.48 7 6 7 1013.1 0 17.2 24.1 35.3 92.5 83.7 287.0
07/05 22:00 14.1 64 7.77 7.4 9 20 1013.1 0 17.8 24.5 36.4 95.3 87.3 299.5
07/05 21:50 13.5 69 8.07 7.9 4 6 1013.1 0 18.5 25.1 37.8 99.2 91.8 315.4
07/05 21:40 13.3 72 8.32 8.3 7 11 1013.1 0 19.0 25.6 38.9 102.1 95.3 327.6
07/05 21:30 13.3 74 8.55 8.8 6 11 1013.1 0 19.5 26.0 39.8 104.6 98.4 338.3
07/05 21:20 13.3 74 8.55 8.9 7 13 1013.1 0 19.5 26.0 39.8 104.6 98.4 338.3
07/05 21:10 13.3 76 8.78 9.1 7 9 1013.1 0 20.0 26.3 40.8 107.0 101.4 349.0
07/05 21:00 13.2 76 8.73 9.1 6 13 1013.1 0 19.9 26.3 40.6 106.6 100.9 347.1
07/05 20:50 12.9 75 8.45 8.7 6 6 1013.1 0 19.3 25.9 39.6 104.0 97.5 335.4
07/05 20:40 13 75 8.51 8.8 6 7 1013.1 0 19.4 26.0 39.8 104.5 98.2 337.7
07/05 20:30 13 74 8.39 8.5 7 13 1013.1 0 19.2 25.8 39.3 103.2 96.6 332.1
07/05 20:20 13.1 71 8.1 8.1 7 11 1013.1 0 18.6 25.3 38.1 100.0 92.7 318.4
07/05 20:10 13.3 70 8.09 7.9 9 13 1013.1 0 18.5 25.2 38.0 99.6 92.3 317.1
07/05 20:00 13.4 69 8.02 7.8 9 19 1013.1 0 18.4 25.1 37.7 98.8 91.3 313.5
07/05 19:50 13.4 69 8.02 7.8 9 15 1013.1 0 18.4 25.1 37.7 98.8 91.3 313.5
07/05 19:40 13.2 69 7.92 7.6 6 7 1013.1 0 18.2 25.0 37.4 98.0 90.2 309.7

Last Refresh: 08-May-2026 12:09:36

Bureau of Meteorology